createdAt,value
2023-02-03T00:00:16.873Z,5.30
2023-02-03T00:03:04.865Z,5.90
2023-02-03T00:05:34.571Z,5.80
2023-02-03T00:08:04.214Z,6.00
2023-02-03T00:10:34.171Z,6.50
2023-02-03T00:13:02.331Z,6.10
2023-02-03T00:15:30.284Z,6.90
2023-02-03T00:17:58.282Z,7.60
2023-02-03T00:20:26.604Z,7.30
2023-02-03T00:22:54.736Z,7.30
2023-02-03T00:25:22.563Z,7.40
2023-02-03T00:27:50.506Z,7.50
2023-02-03T00:30:18.570Z,6.60
2023-02-03T00:32:46.400Z,7.10
2023-02-03T00:35:14.257Z,6.30
2023-02-03T00:37:42.087Z,6.20
2023-02-03T00:40:10.751Z,6.00
2023-02-03T00:42:38.731Z,5.40
2023-02-03T00:45:07.068Z,5.60
2023-02-03T00:47:35.712Z,5.80
2023-02-03T00:50:05.232Z,6.30
2023-02-03T00:52:33.224Z,6.90
2023-02-03T00:55:01.058Z,7.40
2023-02-03T00:57:29.025Z,7.30
2023-02-03T00:59:58.109Z,6.40
2023-02-03T01:02:26.036Z,7.20
2023-02-03T01:04:53.978Z,5.80
2023-02-03T01:07:21.973Z,6.20
2023-02-03T01:09:50.137Z,6.70
2023-02-03T01:12:17.941Z,7.80
2023-02-03T01:14:45.776Z,8.10
2023-02-03T01:17:13.666Z,8.40
2023-02-03T01:19:41.555Z,6.90
2023-02-03T01:22:09.347Z,6.80
2023-02-03T01:24:37.282Z,6.50
2023-02-03T01:27:06.335Z,5.50
2023-02-03T01:29:34.468Z,5.60
2023-02-03T01:32:02.417Z,5.60
2023-02-03T01:34:30.533Z,5.80
2023-02-03T01:36:58.529Z,5.30
2023-02-03T01:39:27.362Z,5.00
2023-02-03T01:41:56.287Z,5.30
2023-02-03T01:44:47.720Z,5.70
2023-02-03T01:47:34.609Z,5.80
2023-02-03T01:50:08.974Z,5.50
2023-02-03T01:52:37.871Z,6.20
2023-02-03T01:55:10.332Z,6.40
2023-02-03T01:57:46.516Z,6.50
2023-02-03T02:00:15.663Z,6.90
2023-02-03T02:02:46.367Z,7.30
2023-02-03T02:05:32.764Z,7.20
2023-02-03T02:08:02.833Z,7.30
2023-02-03T02:10:31.837Z,8.50
2023-02-03T02:13:02.571Z,8.80
2023-02-03T02:15:54.642Z,7.50
2023-02-03T02:18:54.836Z,6.80
2023-02-03T02:21:46.617Z,6.40
2023-02-03T02:24:43.569Z,5.90
2023-02-03T02:27:37.661Z,7.10
2023-02-03T02:30:38.606Z,9.20
2023-02-03T02:33:15.833Z,8.20
2023-02-03T02:35:58.302Z,8.20
2023-02-03T02:38:34.884Z,7.40
2023-02-03T02:41:18.957Z,6.30
2023-02-03T02:43:57.711Z,7.40
2023-02-03T02:46:35.942Z,7.30
2023-02-03T02:49:12.064Z,7.00
2023-02-03T02:51:43.925Z,6.10
2023-02-03T02:54:18.980Z,6.20
2023-02-03T02:56:55.598Z,6.40
2023-02-03T02:59:24.751Z,6.40
2023-02-03T03:01:52.684Z,6.40
2023-02-03T03:04:27.374Z,7.40
2023-02-03T03:07:08.840Z,8.50
2023-02-03T03:09:44.996Z,9.00
2023-02-03T03:12:26.949Z,9.40
2023-02-03T03:15:07.139Z,9.20
2023-02-03T03:17:42.860Z,7.70
2023-02-03T03:20:21.207Z,7.60
2023-02-03T03:22:57.150Z,6.40
2023-02-03T03:25:31.990Z,5.20
2023-02-03T03:28:06.271Z,5.00
2023-02-03T03:30:36.908Z,4.40
2023-02-03T03:33:06.867Z,4.10
2023-02-03T03:35:41.644Z,4.40
2023-02-03T03:38:22.450Z,4.70
2023-02-03T03:40:59.228Z,5.90
2023-02-03T03:43:31.952Z,7.00
2023-02-03T03:46:28.826Z,8.40
2023-02-03T03:49:05.084Z,8.20
2023-02-03T03:51:55.042Z,6.80
2023-02-03T03:54:24.980Z,6.00
2023-02-03T03:57:01.783Z,4.30
2023-02-03T03:59:34.555Z,4.80
2023-02-03T04:02:05.053Z,4.10
2023-02-03T04:04:36.522Z,3.80
2023-02-03T04:07:04.712Z,3.50
2023-02-03T04:09:32.671Z,3.80
2023-02-03T04:12:03.450Z,3.60
2023-02-03T04:14:34.236Z,3.10
2023-02-03T04:17:02.224Z,3.20
2023-02-03T04:19:30.372Z,3.80
2023-02-03T04:21:58.456Z,3.60
2023-02-03T04:24:26.485Z,4.20
2023-02-03T04:26:54.648Z,4.90
2023-02-03T04:29:22.566Z,8.70
2023-02-03T04:31:50.577Z,6.60
2023-02-03T04:34:18.445Z,5.90
2023-02-03T04:36:46.298Z,5.00
2023-02-03T04:39:14.142Z,4.80
2023-02-03T04:41:42.028Z,7.10
2023-02-03T04:44:09.856Z,8.10
2023-02-03T04:46:37.749Z,5.50
2023-02-03T04:49:05.936Z,4.30
2023-02-03T04:51:33.755Z,3.80
2023-02-03T04:54:01.583Z,3.40
2023-02-03T04:56:29.400Z,3.90
2023-02-03T04:58:57.315Z,3.50
2023-02-03T05:01:25.418Z,4.00
2023-02-03T05:03:53.299Z,4.90
2023-02-03T05:06:26.188Z,4.80
2023-02-03T05:08:54.615Z,5.30
2023-02-03T05:11:22.817Z,5.00
2023-02-03T05:13:50.835Z,5.60
2023-02-03T05:16:18.750Z,5.80
2023-02-03T05:18:46.643Z,5.30
2023-02-03T05:21:14.549Z,4.40
2023-02-03T05:23:42.735Z,5.20
2023-02-03T05:26:10.847Z,4.30
2023-02-03T05:28:38.916Z,5.30
2023-02-03T05:31:06.928Z,6.10
2023-02-03T05:33:34.827Z,7.10
2023-02-03T05:36:02.972Z,6.40
2023-02-03T05:38:30.814Z,4.90
2023-02-03T05:41:17.171Z,6.80
2023-02-03T05:43:45.078Z,6.60
2023-02-03T05:46:13.050Z,7.40
2023-02-03T05:48:40.965Z,8.70
2023-02-03T05:51:08.871Z,9.10
2023-02-03T05:53:36.680Z,9.20
2023-02-03T05:56:04.749Z,7.60
2023-02-03T05:58:32.662Z,8.30
2023-02-03T06:01:00.527Z,7.70
2023-02-03T06:03:28.443Z,7.90
2023-02-03T06:05:56.342Z,7.70
2023-02-03T06:08:28.414Z,7.80
2023-02-03T06:11:02.165Z,8.10
2023-02-03T06:15:57.876Z,9.60
2023-02-03T06:18:25.820Z,8.00
2023-02-03T06:20:53.698Z,7.20
2023-02-03T06:23:21.560Z,7.40
2023-02-03T06:25:52.214Z,6.40
2023-02-03T06:28:20.273Z,7.70
2023-02-03T06:30:52.165Z,9.50
2023-02-03T06:33:20.522Z,11.90
2023-02-03T06:35:48.341Z,11.50
2023-02-03T06:38:16.198Z,8.40
2023-02-03T06:40:46.943Z,8.90
2023-02-03T06:43:14.912Z,6.60
2023-02-03T06:45:46.330Z,7.80
2023-02-03T06:48:14.659Z,7.00
2023-02-03T06:50:42.657Z,6.10
2023-02-03T06:53:10.591Z,3.80
2023-02-03T06:55:38.441Z,3.40
2023-02-03T06:58:06.312Z,3.10
2023-02-03T07:00:34.179Z,3.20
2023-02-03T07:03:02.885Z,3.10
2023-02-03T07:05:31.332Z,3.60
2023-02-03T07:07:59.454Z,3.30
2023-02-03T07:10:27.546Z,2.80
2023-02-03T07:12:55.637Z,3.40
2023-02-03T07:15:23.465Z,3.90
2023-02-03T07:17:54.813Z,3.50
2023-02-03T07:20:24.023Z,3.90
2023-02-03T07:22:56.559Z,4.90
2023-02-03T07:25:25.357Z,5.60
2023-02-03T07:27:53.892Z,6.40
2023-02-03T07:30:22.284Z,9.50
2023-02-03T07:32:51.660Z,8.30
2023-02-03T07:35:20.129Z,7.50
2023-02-03T07:37:48.112Z,6.40
2023-02-03T07:40:16.298Z,6.90
2023-02-03T07:42:45.687Z,7.20
2023-02-03T07:45:16.007Z,7.70
2023-02-03T07:47:44.516Z,7.30
2023-02-03T07:50:13.013Z,6.00
2023-02-03T07:52:40.979Z,5.40
2023-02-03T07:55:09.154Z,6.10
2023-02-03T07:57:37.321Z,6.50
2023-02-03T08:00:05.535Z,7.50
2023-02-03T08:02:41.210Z,7.80
2023-02-03T08:05:10.787Z,8.10
2023-02-03T08:07:38.792Z,10.60
2023-02-03T08:10:07.436Z,11.70
2023-02-03T08:12:35.827Z,10.80
2023-02-03T08:15:04.584Z,9.90
2023-02-03T08:17:33.824Z,9.50
2023-02-03T08:20:02.290Z,9.80
2023-02-03T08:22:30.167Z,7.80
2023-02-03T08:24:57.986Z,7.00
2023-02-03T08:27:25.843Z,5.90
2023-02-03T08:29:53.720Z,6.20
2023-02-03T08:32:22.734Z,5.50
2023-02-03T08:34:51.218Z,6.40
2023-02-03T08:37:22.008Z,8.80
2023-02-03T08:39:50.092Z,10.10
2023-02-03T08:42:18.627Z,10.40
2023-02-03T08:44:46.598Z,8.30
2023-02-03T08:47:15.003Z,9.20
2023-02-03T08:49:43.038Z,9.00
2023-02-03T08:52:12.728Z,8.20
2023-02-03T08:54:40.962Z,7.10
2023-02-03T08:57:09.040Z,6.00
2023-02-03T08:59:41.742Z,5.10
2023-02-03T09:02:14.891Z,4.90
2023-02-03T09:04:43.598Z,4.30
2023-02-03T09:07:13.389Z,3.90
2023-02-03T09:09:41.286Z,4.40
2023-02-03T09:12:11.627Z,4.40
2023-02-03T09:14:39.724Z,4.60
2023-02-03T09:17:10.763Z,4.90
2023-02-03T09:19:38.617Z,5.00
2023-02-03T09:22:06.545Z,3.90
2023-02-03T09:24:34.791Z,5.20
2023-02-03T09:27:02.749Z,5.10
2023-02-03T09:29:30.642Z,5.10
2023-02-03T09:31:58.614Z,7.10
2023-02-03T09:34:26.514Z,6.00
2023-02-03T09:36:54.315Z,7.90
2023-02-03T09:39:22.120Z,7.60
2023-02-03T09:42:08.420Z,7.20
2023-02-03T09:45:00.496Z,5.90
2023-02-03T09:47:34.364Z,5.00
2023-02-03T09:50:13.301Z,4.40
2023-02-03T09:52:42.001Z,3.50
2023-02-03T09:55:33.421Z,3.30
2023-02-03T09:58:04.125Z,3.30
2023-02-03T10:00:39.940Z,3.80
2023-02-03T10:03:38.404Z,3.30
2023-02-03T10:06:25.157Z,3.50
2023-02-03T10:09:14.477Z,3.00
2023-02-03T10:11:54.488Z,2.70
2023-02-03T10:14:49.922Z,3.30
2023-02-03T10:17:26.576Z,3.10
2023-02-03T10:20:05.227Z,3.00
2023-02-03T10:22:40.135Z,3.00
2023-02-03T10:25:20.873Z,4.10
2023-02-03T10:27:49.763Z,4.10
2023-02-03T10:30:23.779Z,5.80
2023-02-03T10:32:57.643Z,3.00
2023-02-03T10:35:36.485Z,2.70
2023-02-03T10:38:09.911Z,2.70
2023-02-03T10:40:37.948Z,1.90
2023-02-03T10:43:24.606Z,3.40
2023-02-03T10:45:52.555Z,3.20
2023-02-03T10:48:22.250Z,2.50
2023-02-03T10:50:50.618Z,2.60
2023-02-03T10:53:18.388Z,3.20
2023-02-03T10:55:48.995Z,3.20
2023-02-03T10:58:27.247Z,2.50
2023-02-03T11:01:10.585Z,3.60
2023-02-03T11:03:41.911Z,3.40
2023-02-03T11:06:15.609Z,2.70
2023-02-03T11:08:46.639Z,2.90
2023-02-03T11:11:16.441Z,2.40
2023-02-03T11:13:44.560Z,2.90
2023-02-03T11:16:24.493Z,2.00
2023-02-03T11:18:54.240Z,2.40
2023-02-03T11:21:25.208Z,2.30
2023-02-03T11:23:55.893Z,2.20
2023-02-03T11:26:30.845Z,2.50
2023-02-03T11:29:01.822Z,1.90
2023-02-03T11:31:33.528Z,3.10
2023-02-03T11:34:15.214Z,2.70
2023-02-03T11:36:43.076Z,2.60
2023-02-03T11:39:19.158Z,2.80
2023-02-03T11:41:48.199Z,2.60
2023-02-03T11:44:26.320Z,2.80
2023-02-03T11:46:59.414Z,3.90
2023-02-03T11:49:49.995Z,3.30
2023-02-03T11:52:36.603Z,2.90
2023-02-03T11:55:13.247Z,2.90
2023-02-03T11:57:59.980Z,4.20
2023-02-03T12:01:09.048Z,4.10
2023-02-03T12:03:45.739Z,3.50
2023-02-03T12:06:35.113Z,2.80
2023-02-03T12:09:20.750Z,5.20
2023-02-03T12:12:15.917Z,6.40
2023-02-03T12:15:05.576Z,4.30
2023-02-03T12:17:58.128Z,3.20
2023-02-03T12:20:40.686Z,2.90
2023-02-03T12:23:08.520Z,2.80
2023-02-03T12:25:51.544Z,3.40
2023-02-03T12:28:56.991Z,4.10
2023-02-03T12:31:38.809Z,3.50
2023-02-03T12:34:15.655Z,2.90
2023-02-03T12:37:03.073Z,3.20
2023-02-03T12:39:39.456Z,3.80
2023-02-03T12:42:15.822Z,3.50
2023-02-03T12:45:00.052Z,4.20
2023-02-03T12:47:40.109Z,2.40
2023-02-03T12:50:35.381Z,2.60
2023-02-03T12:53:19.444Z,2.80
2023-02-03T12:55:50.992Z,2.50
2023-02-03T12:58:26.654Z,2.20
2023-02-03T13:00:57.198Z,1.70
2023-02-03T13:03:37.391Z,2.70
2023-02-03T13:06:43.344Z,2.90
2023-02-03T13:09:50.039Z,3.10
2023-02-03T13:12:31.628Z,2.70
2023-02-03T13:15:30.342Z,2.80
2023-02-03T13:18:15.604Z,1.70
2023-02-03T13:20:45.353Z,2.50
2023-02-03T13:23:15.263Z,2.00
2023-02-03T13:25:43.126Z,2.70
2023-02-03T13:28:41.465Z,3.70
2023-02-03T13:31:27.682Z,3.90
2023-02-03T13:34:14.026Z,3.60
2023-02-03T13:36:51.107Z,2.10
2023-02-03T13:39:46.157Z,2.00
2023-02-03T13:42:22.672Z,1.20
2023-02-03T13:45:03.142Z,1.60
2023-02-03T13:47:32.856Z,2.60
2023-02-03T13:50:06.106Z,5.60
2023-02-03T13:52:42.040Z,7.90
2023-02-03T13:55:28.608Z,7.00
2023-02-03T13:57:57.564Z,6.70
2023-02-03T14:00:43.825Z,8.70
2023-02-03T14:03:24.164Z,8.30
2023-02-03T14:05:54.695Z,7.60
2023-02-03T14:08:25.514Z,8.20
2023-02-03T14:11:30.999Z,6.10
2023-02-03T14:14:08.043Z,8.10
2023-02-03T14:16:35.855Z,6.40
2023-02-03T14:19:05.292Z,4.60
2023-02-03T14:21:46.310Z,3.40
2023-02-03T14:24:15.357Z,4.30
2023-02-03T14:26:50.533Z,6.00
2023-02-03T14:29:30.543Z,6.00
2023-02-03T14:32:02.517Z,5.30
2023-02-03T14:34:41.832Z,3.70
2023-02-03T14:37:22.026Z,5.40
2023-02-03T14:39:56.001Z,4.80
2023-02-03T14:42:49.466Z,4.40
2023-02-03T14:45:49.022Z,5.20
2023-02-03T14:48:46.167Z,6.00
2023-02-03T14:51:51.546Z,6.60
2023-02-03T14:54:25.257Z,6.10
2023-02-03T15:00:10.846Z,6.90
2023-02-03T15:03:10.520Z,7.40
2023-02-03T15:05:49.426Z,6.50
2023-02-03T15:08:37.150Z,7.70
2023-02-03T15:11:24.878Z,6.50
2023-02-03T15:13:54.158Z,5.80
2023-02-03T15:16:24.511Z,5.80
2023-02-03T15:19:00.611Z,8.30
2023-02-03T15:21:28.497Z,8.30
2023-02-03T15:23:56.463Z,7.00
2023-02-03T15:26:26.317Z,7.30
2023-02-03T15:29:00.598Z,5.40
2023-02-03T15:31:34.112Z,6.20
2023-02-03T15:34:28.946Z,7.70
2023-02-03T15:37:01.579Z,8.80
2023-02-03T15:39:47.648Z,8.00
2023-02-03T15:42:29.563Z,8.20
2023-02-03T15:45:04.574Z,3.60
2023-02-03T15:47:38.957Z,4.70
2023-02-03T15:50:28.293Z,2.50
2023-02-03T15:53:01.315Z,2.30
2023-02-03T15:55:39.085Z,2.90
2023-02-03T15:58:07.109Z,3.80
2023-02-03T16:00:38.926Z,3.50
2023-02-03T16:03:21.585Z,4.00
2023-02-03T16:05:50.342Z,4.30
2023-02-03T16:08:42.900Z,5.80
2023-02-03T16:11:38.882Z,6.60
2023-02-03T16:14:10.257Z,5.20
2023-02-03T16:17:03.855Z,4.00
2023-02-03T16:19:38.168Z,3.60
2023-02-03T16:24:54.073Z,4.60
2023-02-03T16:27:22.111Z,5.20
2023-02-03T16:30:08.750Z,5.30
2023-02-03T16:32:55.948Z,4.30
2023-02-03T16:35:43.307Z,4.20
2023-02-03T16:38:34.553Z,5.10
2023-02-03T16:41:28.395Z,5.10
2023-02-03T16:44:14.708Z,4.70
2023-02-03T16:47:01.911Z,4.70
2023-02-03T16:49:48.595Z,4.10
2023-02-03T16:52:16.751Z,4.20
2023-02-03T16:54:44.601Z,4.90
2023-02-03T16:57:12.458Z,5.60
2023-02-03T16:59:40.319Z,4.90
2023-02-03T17:02:10.463Z,5.90
2023-02-03T17:04:38.376Z,5.90
2023-02-03T17:07:06.277Z,5.40
2023-02-03T17:09:35.383Z,5.40
2023-02-03T17:12:03.896Z,5.90
2023-02-03T17:14:31.795Z,5.60
2023-02-03T17:16:59.705Z,4.90
2023-02-03T17:19:27.562Z,5.50
2023-02-03T17:21:56.002Z,5.70
2023-02-03T17:24:24.509Z,5.90
2023-02-03T17:37:47.540Z,6.40
2023-02-03T17:54:06.794Z,4.90
2023-02-03T17:56:35.813Z,5.40
2023-02-03T17:59:05.761Z,5.50
2023-02-03T18:01:33.888Z,4.20
2023-02-03T18:04:03.559Z,6.30
2023-02-03T18:06:35.958Z,5.80
2023-02-03T18:09:10.294Z,4.50
2023-02-03T18:11:38.390Z,5.60
2023-02-03T18:14:06.497Z,5.60
2023-02-03T18:16:36.076Z,3.60
2023-02-03T18:19:06.528Z,5.10
2023-02-03T18:21:37.915Z,5.00
2023-02-03T18:24:06.481Z,5.00
2023-02-03T18:26:37.032Z,5.60
2023-02-03T18:29:05.839Z,5.40
2023-02-03T18:31:34.047Z,4.30
2023-02-03T18:34:03.975Z,6.10
2023-02-03T18:36:33.026Z,5.10
2023-02-03T18:39:01.215Z,5.20
2023-02-03T18:41:29.510Z,4.90
2023-02-03T18:43:57.674Z,5.70
2023-02-03T18:46:30.260Z,5.70
2023-02-03T18:48:59.079Z,5.40
2023-02-03T18:51:27.605Z,6.00
2023-02-03T18:54:00.146Z,5.10
2023-02-03T18:56:38.242Z,6.70
2023-02-03T18:59:09.212Z,5.30
2023-02-03T19:01:39.005Z,4.40
2023-02-03T19:04:07.018Z,5.20
2023-02-03T19:06:36.052Z,5.10
2023-02-03T19:09:05.550Z,5.60
2023-02-03T19:11:34.036Z,4.80
2023-02-03T19:14:02.129Z,6.20
2023-02-03T19:16:30.408Z,5.20
2023-02-03T19:18:58.548Z,4.60
2023-02-03T19:21:26.623Z,4.30
2023-02-03T19:23:54.877Z,5.30
2023-02-03T19:26:22.858Z,6.20
2023-02-03T19:28:51.707Z,5.00
2023-02-03T19:31:20.031Z,4.40
2023-02-03T19:33:47.932Z,6.30
2023-02-03T19:36:16.056Z,4.70
2023-02-03T19:38:44.162Z,5.00
2023-02-03T19:41:12.630Z,3.20
2023-02-03T19:43:40.612Z,3.60
2023-02-03T19:46:08.752Z,3.50
2023-02-03T19:48:36.681Z,3.70
2023-02-03T19:51:04.668Z,5.40
2023-02-03T19:53:33.729Z,4.60
2023-02-03T19:56:01.596Z,4.90
2023-02-03T19:58:30.696Z,4.60
2023-02-03T20:00:58.597Z,5.90
2023-02-03T20:03:26.687Z,4.10
2023-02-03T20:05:55.550Z,4.00
2023-02-03T20:08:23.597Z,3.20
2023-02-03T20:10:52.427Z,3.40
2023-02-03T20:13:22.712Z,3.70
2023-02-03T20:15:50.612Z,3.90
2023-02-03T20:18:18.568Z,3.50
2023-02-03T20:20:56.694Z,4.40
2023-02-03T20:23:24.807Z,3.00
2023-02-03T20:25:53.659Z,4.40
2023-02-03T20:28:24.042Z,3.80
2023-02-03T20:30:53.948Z,3.60
2023-02-03T20:33:22.842Z,4.00
2023-02-03T20:35:50.932Z,3.40
2023-02-03T20:38:19.414Z,3.50
2023-02-03T20:40:47.267Z,3.90
2023-02-03T20:43:19.859Z,3.30
2023-02-03T20:45:49.670Z,3.00
2023-02-03T20:48:19.854Z,2.50
2023-02-03T20:50:49.509Z,2.80
2023-02-03T20:53:24.497Z,2.30
2023-02-03T20:55:57.088Z,2.80
2023-02-03T20:58:28.199Z,3.00
2023-02-03T21:00:58.964Z,3.30
2023-02-03T21:03:45.558Z,3.00
2023-02-03T21:06:16.590Z,3.80
2023-02-03T21:08:46.177Z,3.60
2023-02-03T21:11:19.457Z,3.50
2023-02-03T21:13:49.698Z,2.80
2023-02-03T21:16:27.653Z,3.00
2023-02-03T21:19:00.332Z,3.00
2023-02-03T21:21:36.602Z,2.60
2023-02-03T21:24:25.507Z,2.30
2023-02-03T21:26:53.911Z,2.50
2023-02-03T21:29:28.886Z,2.40
2023-02-03T21:31:57.258Z,2.50
2023-02-03T21:34:31.281Z,2.40
2023-02-03T21:37:12.372Z,1.80
2023-02-03T21:39:41.754Z,2.40
2023-02-03T21:42:41.469Z,2.20
2023-02-03T21:45:19.770Z,2.30
2023-02-03T21:47:49.885Z,1.80
2023-02-03T21:50:35.172Z,2.40
2023-02-03T21:53:08.862Z,2.10
2023-02-03T21:55:37.989Z,2.30
2023-02-03T21:58:30.051Z,1.80
2023-02-03T22:00:59.813Z,2.70
2023-02-03T22:03:35.421Z,2.70
2023-02-03T22:06:09.409Z,2.40
2023-02-03T22:08:46.653Z,1.90
2023-02-03T22:11:15.910Z,1.70
2023-02-03T22:13:44.491Z,1.60
2023-02-03T22:16:14.227Z,1.80
2023-02-03T22:18:42.125Z,2.10
2023-02-03T22:21:09.951Z,4.50
2023-02-03T22:23:38.810Z,3.60
2023-02-03T22:26:07.655Z,3.10
2023-02-03T22:28:36.029Z,3.60
2023-02-03T22:31:05.151Z,3.80
2023-02-03T22:33:35.002Z,3.60
2023-02-03T22:36:04.207Z,3.70
2023-02-03T22:38:33.592Z,3.70
2023-02-03T22:41:01.931Z,3.70
2023-02-03T22:43:31.196Z,3.80
2023-02-03T22:46:01.715Z,3.60
2023-02-03T22:48:30.426Z,2.70
2023-02-03T22:50:58.426Z,2.70
2023-02-03T22:53:27.450Z,2.30
2023-02-03T22:55:55.456Z,1.60
2023-02-03T22:58:23.352Z,1.40
2023-02-03T23:00:51.263Z,1.40
2023-02-03T23:03:19.212Z,1.90
2023-02-03T23:05:47.052Z,1.80
2023-02-03T23:08:14.980Z,1.50
2023-02-03T23:10:42.798Z,1.40
2023-02-03T23:13:10.688Z,1.60
2023-02-03T23:15:38.550Z,1.50
2023-02-03T23:18:06.431Z,1.50
2023-02-03T23:20:34.398Z,1.20
2023-02-03T23:23:02.243Z,1.20
2023-02-03T23:25:30.070Z,1.20
2023-02-03T23:27:58.189Z,1.40
2023-02-03T23:30:26.025Z,1.30
2023-02-03T23:32:53.858Z,1.40
2023-02-03T23:35:40.535Z,1.00
2023-02-03T23:38:08.431Z,1.30
2023-02-03T23:40:36.265Z,1.20
2023-02-03T23:43:04.053Z,1.10
2023-02-03T23:45:31.942Z,1.40
2023-02-03T23:47:59.818Z,1.10
2023-02-03T23:50:27.631Z,1.10
2023-02-03T23:52:55.435Z,1.40
2023-02-03T23:55:23.562Z,0.90
2023-02-03T23:57:51.447Z,1.30
